sensor_id;sensor_type;location;lat;lon;timestamp;pressure;altitude;pressure_sealevel;temperature;humidity
62928;BME280;51070;52.236;-0.892;2023-02-12T00:00:32;102884.92;;;8.62;79.23
62928;BME280;51070;52.236;-0.892;2023-02-12T00:02:58;102880.88;;;8.66;79.09
62928;BME280;51070;52.236;-0.892;2023-02-12T00:05:23;102881.55;;;8.68;79.10
62928;BME280;51070;52.236;-0.892;2023-02-12T00:07:49;102881.42;;;8.68;78.91
62928;BME280;51070;52.236;-0.892;2023-02-12T00:10:15;102879.18;;;8.68;78.72
62928;BME280;51070;52.236;-0.892;2023-02-12T00:12:40;102877.60;;;8.68;78.85
62928;BME280;51070;52.236;-0.892;2023-02-12T00:15:06;102881.44;;;8.66;78.70
62928;BME280;51070;52.236;-0.892;2023-02-12T00:17:32;102877.81;;;8.60;78.68
62928;BME280;51070;52.236;-0.892;2023-02-12T00:19:57;102872.62;;;8.52;78.95
62928;BME280;51070;52.236;-0.892;2023-02-12T00:22:23;102872.50;;;8.46;79.11
62928;BME280;51070;52.236;-0.892;2023-02-12T00:24:48;102873.08;;;8.40;79.24
62928;BME280;51070;52.236;-0.892;2023-02-12T00:27:16;102873.66;;;8.36;79.47
62928;BME280;51070;52.236;-0.892;2023-02-12T00:29:42;102870.18;;;8.36;79.83
62928;BME280;51070;52.236;-0.892;2023-02-12T00:32:07;102869.43;;;8.35;79.88
62928;BME280;51070;52.236;-0.892;2023-02-12T00:34:33;102869.98;;;8.33;80.05
62928;BME280;51070;52.236;-0.892;2023-02-12T00:36:58;102874.89;;;8.34;80.13
62928;BME280;51070;52.236;-0.892;2023-02-12T00:39:23;102878.92;;;8.33;80.26
62928;BME280;51070;52.236;-0.892;2023-02-12T00:41:49;102878.52;;;8.30;80.03
62928;BME280;51070;52.236;-0.892;2023-02-12T00:44:14;102884.27;;;8.29;80.53
62928;BME280;51070;52.236;-0.892;2023-02-12T00:46:40;102889.20;;;8.26;80.38
62928;BME280;51070;52.236;-0.892;2023-02-12T00:49:05;102886.59;;;8.23;80.54
62928;BME280;51070;52.236;-0.892;2023-02-12T00:51:30;102893.08;;;8.20;80.46
62928;BME280;51070;52.236;-0.892;2023-02-12T00:53:56;102890.58;;;8.17;80.79
62928;BME280;51070;52.236;-0.892;2023-02-12T00:56:21;102886.36;;;8.16;80.80
62928;BME280;51070;52.236;-0.892;2023-02-12T00:58:46;102888.94;;;8.16;80.97
62928;BME280;51070;52.236;-0.892;2023-02-12T01:01:12;102894.59;;;8.18;81.25
62928;BME280;51070;52.236;-0.892;2023-02-12T01:03:37;102896.87;;;8.20;81.18
62928;BME280;51070;52.236;-0.892;2023-02-12T01:06:04;102895.34;;;8.23;81.19
62928;BME280;51070;52.236;-0.892;2023-02-12T01:08:30;102895.50;;;8.25;81.31
62928;BME280;51070;52.236;-0.892;2023-02-12T01:10:58;102895.92;;;8.26;81.09
62928;BME280;51070;52.236;-0.892;2023-02-12T01:13:24;102890.99;;;8.22;81.01
62928;BME280;51070;52.236;-0.892;2023-02-12T01:16:08;102892.48;;;8.17;80.85
62928;BME280;51070;52.236;-0.892;2023-02-12T01:18:36;102893.33;;;8.15;80.95
62928;BME280;51070;52.236;-0.892;2023-02-12T01:21:10;102893.67;;;8.17;81.22
62928;BME280;51070;52.236;-0.892;2023-02-12T01:23:36;102893.27;;;8.21;81.28
62928;BME280;51070;52.236;-0.892;2023-02-12T01:26:02;102895.60;;;8.26;81.43
62928;BME280;51070;52.236;-0.892;2023-02-12T01:28:29;102902.48;;;8.32;81.35
62928;BME280;51070;52.236;-0.892;2023-02-12T01:30:54;102899.70;;;8.34;81.05
62928;BME280;51070;52.236;-0.892;2023-02-12T01:33:20;102896.13;;;8.35;81.06
62928;BME280;51070;52.236;-0.892;2023-02-12T01:35:45;102898.97;;;8.36;81.05
62928;BME280;51070;52.236;-0.892;2023-02-12T01:38:11;102896.94;;;8.34;80.97
62928;BME280;51070;52.236;-0.892;2023-02-12T01:40:36;102892.84;;;8.34;81.01
62928;BME280;51070;52.236;-0.892;2023-02-12T01:43:02;102893.48;;;8.34;80.90
62928;BME280;51070;52.236;-0.892;2023-02-12T01:47:53;102878.80;;;8.34;80.79
62928;BME280;51070;52.236;-0.892;2023-02-12T01:50:19;102874.77;;;8.31;80.65
62928;BME280;51070;52.236;-0.892;2023-02-12T01:52:50;102879.98;;;8.29;80.79
62928;BME280;51070;52.236;-0.892;2023-02-12T01:55:18;102882.91;;;8.29;80.79
62928;BME280;51070;52.236;-0.892;2023-02-12T01:57:45;102881.02;;;8.25;80.82
62928;BME280;51070;52.236;-0.892;2023-02-12T02:00:18;102883.00;;;8.19;80.98
62928;BME280;51070;52.236;-0.892;2023-02-12T02:02:47;102877.44;;;8.16;81.30
62928;BME280;51070;52.236;-0.892;2023-02-12T02:05:40;102873.65;;;8.16;81.45
62928;BME280;51070;52.236;-0.892;2023-02-12T02:08:08;102876.47;;;8.19;81.53
62928;BME280;51070;52.236;-0.892;2023-02-12T02:10:34;102878.76;;;8.23;81.39
62928;BME280;51070;52.236;-0.892;2023-02-12T02:12:59;102881.98;;;8.22;81.30
62928;BME280;51070;52.236;-0.892;2023-02-12T02:15:46;102874.80;;;8.16;81.17
62928;BME280;51070;52.236;-0.892;2023-02-12T02:18:22;102871.70;;;8.09;81.35
62928;BME280;51070;52.236;-0.892;2023-02-12T02:23:29;102876.86;;;8.07;82.00
62928;BME280;51070;52.236;-0.892;2023-02-12T02:32:01;102872.75;;;8.02;81.95
62928;BME280;51070;52.236;-0.892;2023-02-12T02:35:27;102871.20;;;8.00;81.80
62928;BME280;51070;52.236;-0.892;2023-02-12T02:37:49;102873.82;;;7.98;82.02
62928;BME280;51070;52.236;-0.892;2023-02-12T02:40:23;102881.91;;;7.96;81.80
62928;BME280;51070;52.236;-0.892;2023-02-12T02:43:03;102879.13;;;7.93;81.98
62928;BME280;51070;52.236;-0.892;2023-02-12T02:45:35;102877.50;;;7.90;81.98
62928;BME280;51070;52.236;-0.892;2023-02-12T02:48:32;102881.15;;;7.88;81.99
62928;BME280;51070;52.236;-0.892;2023-02-12T02:51:11;102884.24;;;7.90;82.27
62928;BME280;51070;52.236;-0.892;2023-02-12T02:53:42;102883.03;;;7.92;82.44
62928;BME280;51070;52.236;-0.892;2023-02-12T02:56:14;102872.30;;;7.96;82.37
62928;BME280;51070;52.236;-0.892;2023-02-12T02:58:43;102877.17;;;7.99;82.28
62928;BME280;51070;52.236;-0.892;2023-02-12T03:03:53;102870.63;;;8.01;82.21
62928;BME280;51070;52.236;-0.892;2023-02-12T03:06:36;102869.70;;;8.03;81.98
62928;BME280;51070;52.236;-0.892;2023-02-12T03:09:15;102870.90;;;8.05;81.78
62928;BME280;51070;52.236;-0.892;2023-02-12T03:11:44;102872.38;;;8.06;81.78
62928;BME280;51070;52.236;-0.892;2023-02-12T03:14:24;102863.96;;;8.07;81.82
62928;BME280;51070;52.236;-0.892;2023-02-12T03:20:21;102864.21;;;8.06;81.27
62928;BME280;51070;52.236;-0.892;2023-02-12T03:22:56;102859.92;;;8.04;81.32
62928;BME280;51070;52.236;-0.892;2023-02-12T03:25:28;102865.14;;;8.04;81.27
62928;BME280;51070;52.236;-0.892;2023-02-12T03:36:06;102868.46;;;8.05;80.74
62928;BME280;51070;52.236;-0.892;2023-02-12T03:38:41;102868.42;;;8.02;80.65
62928;BME280;51070;52.236;-0.892;2023-02-12T03:41:11;102869.34;;;7.98;80.72
62928;BME280;51070;52.236;-0.892;2023-02-12T03:43:58;102869.39;;;7.94;80.91
62928;BME280;51070;52.236;-0.892;2023-02-12T03:49:15;102874.38;;;7.85;81.15
62928;BME280;51070;52.236;-0.892;2023-02-12T03:51:45;102875.04;;;7.83;81.63
62928;BME280;51070;52.236;-0.892;2023-02-12T03:54:12;102873.45;;;7.82;81.81
62928;BME280;51070;52.236;-0.892;2023-02-12T03:56:54;102870.57;;;7.83;81.58
62928;BME280;51070;52.236;-0.892;2023-02-12T03:59:22;102871.25;;;7.83;81.91
62928;BME280;51070;52.236;-0.892;2023-02-12T04:01:50;102870.11;;;7.84;81.86
62928;BME280;51070;52.236;-0.892;2023-02-12T04:04:17;102872.19;;;7.86;81.95
62928;BME280;51070;52.236;-0.892;2023-02-12T04:06:45;102873.99;;;7.89;81.73
62928;BME280;51070;52.236;-0.892;2023-02-12T04:09:12;102872.09;;;7.91;81.67
62928;BME280;51070;52.236;-0.892;2023-02-12T04:15:02;102876.51;;;7.95;81.24
62928;BME280;51070;52.236;-0.892;2023-02-12T04:17:50;102872.73;;;7.95;81.40
62928;BME280;51070;52.236;-0.892;2023-02-12T04:30:57;102881.88;;;7.87;81.19
62928;BME280;51070;52.236;-0.892;2023-02-12T04:33:25;102880.48;;;7.86;81.27
62928;BME280;51070;52.236;-0.892;2023-02-12T04:36:07;102876.53;;;7.89;81.62
62928;BME280;51070;52.236;-0.892;2023-02-12T04:38:45;102881.38;;;7.91;81.16
62928;BME280;51070;52.236;-0.892;2023-02-12T04:41:12;102884.55;;;7.92;81.02
62928;BME280;51070;52.236;-0.892;2023-02-12T04:43:38;102882.50;;;7.92;81.19
62928;BME280;51070;52.236;-0.892;2023-02-12T04:46:06;102882.89;;;7.95;81.02
62928;BME280;51070;52.236;-0.892;2023-02-12T04:48:32;102883.71;;;7.95;81.10
62928;BME280;51070;52.236;-0.892;2023-02-12T04:50:59;102880.14;;;7.95;81.03
62928;BME280;51070;52.236;-0.892;2023-02-12T04:53:25;102883.91;;;7.95;80.70
62928;BME280;51070;52.236;-0.892;2023-02-12T04:55:50;102885.15;;;7.93;80.37
62928;BME280;51070;52.236;-0.892;2023-02-12T04:58:16;102889.52;;;7.90;80.32
62928;BME280;51070;52.236;-0.892;2023-02-12T05:00:42;102888.09;;;7.87;80.33
62928;BME280;51070;52.236;-0.892;2023-02-12T05:03:07;102885.06;;;7.84;80.34
62928;BME280;51070;52.236;-0.892;2023-02-12T05:05:33;102883.23;;;7.82;80.35
62928;BME280;51070;52.236;-0.892;2023-02-12T05:07:58;102885.77;;;7.83;80.81
62928;BME280;51070;52.236;-0.892;2023-02-12T05:10:24;102890.71;;;7.85;80.56
62928;BME280;51070;52.236;-0.892;2023-02-12T05:12:53;102891.13;;;7.84;80.35
62928;BME280;51070;52.236;-0.892;2023-02-12T05:15:20;102885.12;;;7.82;80.75
62928;BME280;51070;52.236;-0.892;2023-02-12T05:17:46;102888.76;;;7.82;80.90
62928;BME280;51070;52.236;-0.892;2023-02-12T05:20:12;102888.22;;;7.82;80.96
62928;BME280;51070;52.236;-0.892;2023-02-12T05:22:37;102886.34;;;7.80;81.08
62928;BME280;51070;52.236;-0.892;2023-02-12T05:25:04;102890.54;;;7.74;81.33
62928;BME280;51070;52.236;-0.892;2023-02-12T05:27:29;102884.83;;;7.65;81.69
62928;BME280;51070;52.236;-0.892;2023-02-12T05:29:55;102882.09;;;7.61;82.03
62928;BME280;51070;52.236;-0.892;2023-02-12T05:32:22;102883.34;;;7.59;82.42
62928;BME280;51070;52.236;-0.892;2023-02-12T05:34:47;102881.98;;;7.57;82.71
62928;BME280;51070;52.236;-0.892;2023-02-12T05:37:13;102878.23;;;7.57;82.84
62928;BME280;51070;52.236;-0.892;2023-02-12T05:39:39;102877.30;;;7.58;83.21
62928;BME280;51070;52.236;-0.892;2023-02-12T05:42:04;102881.21;;;7.60;83.12
62928;BME280;51070;52.236;-0.892;2023-02-12T05:44:30;102879.94;;;7.62;83.22
62928;BME280;51070;52.236;-0.892;2023-02-12T05:46:55;102876.09;;;7.64;83.13
62928;BME280;51070;52.236;-0.892;2023-02-12T05:49:21;102875.73;;;7.61;82.95
62928;BME280;51070;52.236;-0.892;2023-02-12T05:51:46;102874.55;;;7.59;83.01
62928;BME280;51070;52.236;-0.892;2023-02-12T05:54:12;102869.59;;;7.57;82.85
62928;BME280;51070;52.236;-0.892;2023-02-12T05:56:42;102872.48;;;7.57;83.13
62928;BME280;51070;52.236;-0.892;2023-02-12T05:59:21;102874.04;;;7.59;83.16
62928;BME280;51070;52.236;-0.892;2023-02-12T06:01:49;102868.23;;;7.59;82.54
62928;BME280;51070;52.236;-0.892;2023-02-12T06:04:19;102867.92;;;7.60;82.63
62928;BME280;51070;52.236;-0.892;2023-02-12T06:06:45;102869.02;;;7.63;82.27
62928;BME280;51070;52.236;-0.892;2023-02-12T06:09:12;102865.11;;;7.66;82.52
62928;BME280;51070;52.236;-0.892;2023-02-12T06:11:39;102862.56;;;7.69;82.13
62928;BME280;51070;52.236;-0.892;2023-02-12T06:14:06;102862.30;;;7.70;81.84
62928;BME280;51070;52.236;-0.892;2023-02-12T06:16:33;102867.73;;;7.71;81.80
62928;BME280;51070;52.236;-0.892;2023-02-12T06:19:01;102864.95;;;7.68;81.45
62928;BME280;51070;52.236;-0.892;2023-02-12T06:21:29;102866.15;;;7.66;81.87
62928;BME280;51070;52.236;-0.892;2023-02-12T06:23:55;102862.25;;;7.63;82.27
62928;BME280;51070;52.236;-0.892;2023-02-12T06:26:21;102861.75;;;7.60;82.60
62928;BME280;51070;52.236;-0.892;2023-02-12T06:28:47;102860.67;;;7.59;82.46
62928;BME280;51070;52.236;-0.892;2023-02-12T06:31:25;102859.20;;;7.56;82.57
62928;BME280;51070;52.236;-0.892;2023-02-12T06:33:51;102858.27;;;7.53;82.56
62928;BME280;51070;52.236;-0.892;2023-02-12T06:36:17;102856.12;;;7.50;82.76
62928;BME280;51070;52.236;-0.892;2023-02-12T06:38:43;102860.42;;;7.50;82.83
62928;BME280;51070;52.236;-0.892;2023-02-12T06:41:09;102860.16;;;7.53;83.32
62928;BME280;51070;52.236;-0.892;2023-02-12T06:43:35;102860.68;;;7.57;83.11
62928;BME280;51070;52.236;-0.892;2023-02-12T06:46:02;102857.58;;;7.62;82.73
62928;BME280;51070;52.236;-0.892;2023-02-12T06:48:28;102858.75;;;7.66;82.53
62928;BME280;51070;52.236;-0.892;2023-02-12T06:50:54;102856.66;;;7.70;82.54
62928;BME280;51070;52.236;-0.892;2023-02-12T06:53:20;102859.53;;;7.72;82.13
62928;BME280;51070;52.236;-0.892;2023-02-12T06:55:45;102859.02;;;7.69;82.20
62928;BME280;51070;52.236;-0.892;2023-02-12T06:58:10;102859.52;;;7.67;82.14
62928;BME280;51070;52.236;-0.892;2023-02-12T07:00:36;102862.31;;;7.65;81.99
62928;BME280;51070;52.236;-0.892;2023-02-12T07:03:01;102862.17;;;7.62;82.03
62928;BME280;51070;52.236;-0.892;2023-02-12T07:05:27;102866.80;;;7.56;81.97
62928;BME280;51070;52.236;-0.892;2023-02-12T07:07:52;102866.10;;;7.52;82.23
62928;BME280;51070;52.236;-0.892;2023-02-12T07:10:18;102867.52;;;7.51;82.74
62928;BME280;51070;52.236;-0.892;2023-02-12T07:12:44;102867.02;;;7.51;82.75
62928;BME280;51070;52.236;-0.892;2023-02-12T07:15:10;102874.31;;;7.49;83.06
62928;BME280;51070;52.236;-0.892;2023-02-12T07:17:35;102877.61;;;7.50;83.29
62928;BME280;51070;52.236;-0.892;2023-02-12T07:20:01;102878.67;;;7.50;82.91
62928;BME280;51070;52.236;-0.892;2023-02-12T07:22:27;102878.98;;;7.50;83.06
62928;BME280;51070;52.236;-0.892;2023-02-12T07:24:52;102881.40;;;7.50;82.96
62928;BME280;51070;52.236;-0.892;2023-02-12T07:27:18;102879.25;;;7.49;82.97
62928;BME280;51070;52.236;-0.892;2023-02-12T07:29:43;102885.27;;;7.49;82.86
62928;BME280;51070;52.236;-0.892;2023-02-12T07:32:09;102886.67;;;7.47;82.80
62928;BME280;51070;52.236;-0.892;2023-02-12T07:34:34;102888.02;;;7.44;82.91
62928;BME280;51070;52.236;-0.892;2023-02-12T07:36:59;102889.42;;;7.45;82.99
62928;BME280;51070;52.236;-0.892;2023-02-12T07:39:25;102891.25;;;7.46;82.99
62928;BME280;51070;52.236;-0.892;2023-02-12T07:41:50;102893.55;;;7.49;83.09
62928;BME280;51070;52.236;-0.892;2023-02-12T07:44:15;102894.02;;;7.53;83.05
62928;BME280;51070;52.236;-0.892;2023-02-12T07:46:43;102895.78;;;7.55;82.77
62928;BME280;51070;52.236;-0.892;2023-02-12T07:49:12;102892.55;;;7.58;82.56
62928;BME280;51070;52.236;-0.892;2023-02-12T07:51:38;102890.02;;;7.58;82.04
62928;BME280;51070;52.236;-0.892;2023-02-12T07:54:04;102894.74;;;7.57;81.82
62928;BME280;51070;52.236;-0.892;2023-02-12T07:56:32;102895.41;;;7.55;81.57
62928;BME280;51070;52.236;-0.892;2023-02-12T07:59:01;102893.33;;;7.53;81.61
62928;BME280;51070;52.236;-0.892;2023-02-12T08:01:32;102895.16;;;7.52;81.75
62928;BME280;51070;52.236;-0.892;2023-02-12T08:04:02;102895.31;;;7.52;81.92
62928;BME280;51070;52.236;-0.892;2023-02-12T08:06:31;102903.66;;;7.51;81.96
62928;BME280;51070;52.236;-0.892;2023-02-12T08:08:58;102904.08;;;7.49;81.90
62928;BME280;51070;52.236;-0.892;2023-02-12T08:11:26;102903.50;;;7.48;82.17
62928;BME280;51070;52.236;-0.892;2023-02-12T08:13:52;102906.20;;;7.48;81.90
62928;BME280;51070;52.236;-0.892;2023-02-12T08:16:20;102908.20;;;7.47;81.94
62928;BME280;51070;52.236;-0.892;2023-02-12T08:18:46;102907.96;;;7.49;82.28
62928;BME280;51070;52.236;-0.892;2023-02-12T08:21:15;102909.96;;;7.52;82.24
62928;BME280;51070;52.236;-0.892;2023-02-12T08:23:42;102913.82;;;7.55;81.88
62928;BME280;51070;52.236;-0.892;2023-02-12T08:28:34;102913.67;;;7.55;82.04
62928;BME280;51070;52.236;-0.892;2023-02-12T08:31:06;102914.27;;;7.57;81.98
62928;BME280;51070;52.236;-0.892;2023-02-12T08:33:33;102914.23;;;7.56;81.81
62928;BME280;51070;52.236;-0.892;2023-02-12T08:36:02;102909.61;;;7.56;81.89
62928;BME280;51070;52.236;-0.892;2023-02-12T08:38:28;102913.52;;;7.56;81.53
62928;BME280;51070;52.236;-0.892;2023-02-12T08:40:53;102915.63;;;7.56;81.64
62928;BME280;51070;52.236;-0.892;2023-02-12T08:43:19;102914.92;;;7.58;81.74
62928;BME280;51070;52.236;-0.892;2023-02-12T08:45:45;102914.61;;;7.61;81.82
62928;BME280;51070;52.236;-0.892;2023-02-12T08:48:10;102916.13;;;7.65;81.53
62928;BME280;51070;52.236;-0.892;2023-02-12T08:50:35;102915.23;;;7.69;81.31
62928;BME280;51070;52.236;-0.892;2023-02-12T08:53:01;102914.70;;;7.73;81.38
62928;BME280;51070;52.236;-0.892;2023-02-12T08:55:26;102917.14;;;7.77;81.18
62928;BME280;51070;52.236;-0.892;2023-02-12T08:57:52;102916.44;;;7.80;80.88
62928;BME280;51070;52.236;-0.892;2023-02-12T09:00:22;102917.18;;;7.82;80.89
62928;BME280;51070;52.236;-0.892;2023-02-12T09:02:47;102915.47;;;7.83;80.62
62928;BME280;51070;52.236;-0.892;2023-02-12T09:05:13;102913.98;;;7.83;80.90
62928;BME280;51070;52.236;-0.892;2023-02-12T09:07:38;102912.42;;;7.86;81.10
62928;BME280;51070;52.236;-0.892;2023-02-12T09:10:05;102915.66;;;7.89;80.99
62928;BME280;51070;52.236;-0.892;2023-02-12T09:12:30;102915.95;;;7.93;80.64
62928;BME280;51070;52.236;-0.892;2023-02-12T09:14:55;102915.87;;;7.94;80.77
62928;BME280;51070;52.236;-0.892;2023-02-12T09:17:21;102921.39;;;7.96;80.53
62928;BME280;51070;52.236;-0.892;2023-02-12T09:19:52;102918.76;;;7.96;80.63
62928;BME280;51070;52.236;-0.892;2023-02-12T09:22:17;102917.46;;;7.97;80.79
62928;BME280;51070;52.236;-0.892;2023-02-12T09:24:42;102914.84;;;7.99;80.54
62928;BME280;51070;52.236;-0.892;2023-02-12T09:27:08;102913.07;;;8.00;80.15
62928;BME280;51070;52.236;-0.892;2023-02-12T09:29:33;102914.71;;;7.99;80.11
62928;BME280;51070;52.236;-0.892;2023-02-12T09:31:59;102914.22;;;8.00;80.31
62928;BME280;51070;52.236;-0.892;2023-02-12T09:34:26;102914.13;;;8.00;80.05
62928;BME280;51070;52.236;-0.892;2023-02-12T09:36:52;102913.64;;;8.01;80.24
62928;BME280;51070;52.236;-0.892;2023-02-12T09:39:17;102916.42;;;8.04;80.21
62928;BME280;51070;52.236;-0.892;2023-02-12T09:45:01;102911.13;;;8.11;80.34
62928;BME280;51070;52.236;-0.892;2023-02-12T09:52:42;102910.90;;;8.23;79.22
62928;BME280;51070;52.236;-0.892;2023-02-12T09:55:13;102909.86;;;8.24;79.21
62928;BME280;51070;52.236;-0.892;2023-02-12T09:57:40;102906.91;;;8.25;79.50
62928;BME280;51070;52.236;-0.892;2023-02-12T10:00:25;102906.88;;;8.29;79.53
62928;BME280;51070;52.236;-0.892;2023-02-12T10:03:00;102909.23;;;8.35;79.16
62928;BME280;51070;52.236;-0.892;2023-02-12T10:05:30;102908.02;;;8.39;78.66
62928;BME280;51070;52.236;-0.892;2023-02-12T10:13:53;102912.17;;;8.49;77.11
62928;BME280;51070;52.236;-0.892;2023-02-12T10:21:58;102904.61;;;8.51;76.07
62928;BME280;51070;52.236;-0.892;2023-02-12T10:25:25;102910.96;;;8.53;76.12
62928;BME280;51070;52.236;-0.892;2023-02-12T10:27:42;102906.78;;;8.57;75.62
62928;BME280;51070;52.236;-0.892;2023-02-12T10:30:39;102904.34;;;8.59;75.41
62928;BME280;51070;52.236;-0.892;2023-02-12T10:33:34;102907.75;;;8.59;75.00
62928;BME280;51070;52.236;-0.892;2023-02-12T10:38:41;102907.54;;;8.63;74.42
62928;BME280;51070;52.236;-0.892;2023-02-12T10:41:13;102907.50;;;8.67;74.80
62928;BME280;51070;52.236;-0.892;2023-02-12T10:43:40;102914.30;;;8.72;74.57
62928;BME280;51070;52.236;-0.892;2023-02-12T10:46:17;102918.69;;;8.76;74.06
62928;BME280;51070;52.236;-0.892;2023-02-12T10:48:48;102917.36;;;8.79;73.60
62928;BME280;51070;52.236;-0.892;2023-02-12T10:51:40;102914.20;;;8.83;73.53
62928;BME280;51070;52.236;-0.892;2023-02-12T10:54:41;102915.64;;;8.86;71.81
62928;BME280;51070;52.236;-0.892;2023-02-12T10:57:13;102913.39;;;8.86;72.36
62928;BME280;51070;52.236;-0.892;2023-02-12T10:59:42;102908.73;;;8.90;72.34
62928;BME280;51070;52.236;-0.892;2023-02-12T11:02:28;102907.77;;;8.94;71.59
62928;BME280;51070;52.236;-0.892;2023-02-12T11:04:55;102906.94;;;8.99;71.80
62928;BME280;51070;52.236;-0.892;2023-02-12T11:07:23;102904.49;;;9.06;71.69
62928;BME280;51070;52.236;-0.892;2023-02-12T11:09:51;102907.10;;;9.13;71.47
62928;BME280;51070;52.236;-0.892;2023-02-12T11:12:35;102909.39;;;9.20;71.00
62928;BME280;51070;52.236;-0.892;2023-02-12T11:15:17;102911.10;;;9.27;71.35
62928;BME280;51070;52.236;-0.892;2023-02-12T11:18:04;102904.69;;;9.32;70.33
62928;BME280;51070;52.236;-0.892;2023-02-12T11:20:38;102905.15;;;9.38;70.68
62928;BME280;51070;52.236;-0.892;2023-02-12T11:23:30;102903.73;;;9.45;70.55
62928;BME280;51070;52.236;-0.892;2023-02-12T11:28:24;102899.11;;;9.55;69.35
62928;BME280;51070;52.236;-0.892;2023-02-12T11:36:00;102897.20;;;9.46;68.45
62928;BME280;51070;52.236;-0.892;2023-02-12T11:38:33;102897.34;;;9.43;67.46
62928;BME280;51070;52.236;-0.892;2023-02-12T11:41:26;102895.96;;;9.43;68.69
62928;BME280;51070;52.236;-0.892;2023-02-12T11:43:59;102892.77;;;9.49;68.75
62928;BME280;51070;52.236;-0.892;2023-02-12T11:46:26;102891.83;;;9.50;68.98
62928;BME280;51070;52.236;-0.892;2023-02-12T11:48:54;102886.98;;;9.52;68.89
62928;BME280;51070;52.236;-0.892;2023-02-12T11:51:25;102880.14;;;9.53;68.33
62928;BME280;51070;52.236;-0.892;2023-02-12T11:53:55;102882.58;;;9.53;67.78
62928;BME280;51070;52.236;-0.892;2023-02-12T11:56:21;102884.75;;;9.52;67.56
62928;BME280;51070;52.236;-0.892;2023-02-12T11:58:48;102880.10;;;9.50;67.05
62928;BME280;51070;52.236;-0.892;2023-02-12T12:01:31;102877.95;;;9.47;66.76
62928;BME280;51070;52.236;-0.892;2023-02-12T12:04:07;102880.75;;;9.45;67.71
62928;BME280;51070;52.236;-0.892;2023-02-12T12:06:35;102873.56;;;9.43;67.29
62928;BME280;51070;52.236;-0.892;2023-02-12T12:11:41;102874.76;;;9.48;67.40
62928;BME280;51070;52.236;-0.892;2023-02-12T12:14:30;102867.56;;;9.51;67.26
62928;BME280;51070;52.236;-0.892;2023-02-12T12:17:05;102865.80;;;9.55;67.28
62928;BME280;51070;52.236;-0.892;2023-02-12T12:20:10;102863.04;;;9.58;67.12
62928;BME280;51070;52.236;-0.892;2023-02-12T12:25:50;102865.38;;;9.59;67.10
62928;BME280;51070;52.236;-0.892;2023-02-12T12:49:37;102833.92;;;9.46;66.21
62928;BME280;51070;52.236;-0.892;2023-02-12T12:58:00;102815.70;;;9.54;66.52
62928;BME280;51070;52.236;-0.892;2023-02-12T13:09:22;102801.83;;;9.69;66.82
62928;BME280;51070;52.236;-0.892;2023-02-12T13:17:35;102794.15;;;9.68;66.82
62928;BME280;51070;52.236;-0.892;2023-02-12T13:20:17;102794.89;;;9.68;67.21
62928;BME280;51070;52.236;-0.892;2023-02-12T13:27:50;102793.92;;;9.72;67.37
62928;BME280;51070;52.236;-0.892;2023-02-12T13:30:21;102791.71;;;9.75;67.47
62928;BME280;51070;52.236;-0.892;2023-02-12T13:35:24;102795.95;;;9.66;66.25
62928;BME280;51070;52.236;-0.892;2023-02-12T13:37:54;102793.45;;;9.60;66.43
62928;BME280;51070;52.236;-0.892;2023-02-12T13:40:25;102791.69;;;9.55;66.45
62928;BME280;51070;52.236;-0.892;2023-02-12T13:43:15;102790.05;;;9.51;66.50
62928;BME280;51070;52.236;-0.892;2023-02-12T13:46:10;102786.73;;;9.45;66.96
62928;BME280;51070;52.236;-0.892;2023-02-12T13:52:01;102782.09;;;9.41;67.31
62928;BME280;51070;52.236;-0.892;2023-02-12T13:57:02;102785.81;;;9.42;67.17
62928;BME280;51070;52.236;-0.892;2023-02-12T14:05:26;102779.21;;;9.37;67.08
62928;BME280;51070;52.236;-0.892;2023-02-12T14:07:58;102772.85;;;9.35;66.88
62928;BME280;51070;52.236;-0.892;2023-02-12T14:10:25;102775.53;;;9.31;66.97
62928;BME280;51070;52.236;-0.892;2023-02-12T14:13:36;102771.55;;;9.28;67.36
62928;BME280;51070;52.236;-0.892;2023-02-12T14:15:44;102764.44;;;9.28;67.61
62928;BME280;51070;52.236;-0.892;2023-02-12T14:18:33;102764.84;;;9.28;67.98
62928;BME280;51070;52.236;-0.892;2023-02-12T14:23:39;102758.48;;;9.31;68.41
62928;BME280;51070;52.236;-0.892;2023-02-12T14:26:07;102758.79;;;9.31;68.63
62928;BME280;51070;52.236;-0.892;2023-02-12T14:29:02;102758.98;;;9.29;68.88
62928;BME280;51070;52.236;-0.892;2023-02-12T14:31:34;102758.20;;;9.25;69.24
62928;BME280;51070;52.236;-0.892;2023-02-12T14:41:28;102754.72;;;9.17;69.84
62928;BME280;51070;52.236;-0.892;2023-02-12T14:46:44;102750.52;;;9.06;70.25
62928;BME280;51070;52.236;-0.892;2023-02-12T14:54:42;102745.56;;;8.97;70.98
62928;BME280;51070;52.236;-0.892;2023-02-12T14:57:37;102746.50;;;8.96;70.97
62928;BME280;51070;52.236;-0.892;2023-02-12T15:05:50;102734.64;;;8.91;71.85
62928;BME280;51070;52.236;-0.892;2023-02-12T15:08:35;102729.86;;;8.85;72.19
62928;BME280;51070;52.236;-0.892;2023-02-12T15:14:28;102724.27;;;8.74;72.74
62928;BME280;51070;52.236;-0.892;2023-02-12T15:17:08;102715.48;;;8.69;73.01
62928;BME280;51070;52.236;-0.892;2023-02-12T15:22:38;102713.05;;;8.62;73.47
62928;BME280;51070;52.236;-0.892;2023-02-12T15:27:57;102712.52;;;8.59;73.13
62928;BME280;51070;52.236;-0.892;2023-02-12T15:30:35;102712.00;;;8.57;73.34
62928;BME280;51070;52.236;-0.892;2023-02-12T15:33:05;102712.70;;;8.52;73.54
62928;BME280;51070;52.236;-0.892;2023-02-12T15:35:34;102713.41;;;8.48;74.11
62928;BME280;51070;52.236;-0.892;2023-02-12T15:38:01;102710.60;;;8.45;74.40
62928;BME280;51070;52.236;-0.892;2023-02-12T15:40:28;102710.42;;;8.42;74.50
62928;BME280;51070;52.236;-0.892;2023-02-12T15:42:55;102709.34;;;8.39;74.73
62928;BME280;51070;52.236;-0.892;2023-02-12T15:45:35;102709.71;;;8.37;74.62
62928;BME280;51070;52.236;-0.892;2023-02-12T15:48:22;102705.17;;;8.36;74.88
62928;BME280;51070;52.236;-0.892;2023-02-12T15:53:42;102707.81;;;8.28;75.18
62928;BME280;51070;52.236;-0.892;2023-02-12T15:56:16;102711.71;;;8.27;75.32
62928;BME280;51070;52.236;-0.892;2023-02-12T15:58:50;102710.66;;;8.27;75.38
62928;BME280;51070;52.236;-0.892;2023-02-12T16:01:22;102710.66;;;8.25;75.39
62928;BME280;51070;52.236;-0.892;2023-02-12T16:03:56;102712.20;;;8.20;75.45